Time;durP1;ratioP1;P1;durP2;ratioP2;P2;SDS_P1;SDS_P2;PMS_P1;PMS_P2;Temp;Humidity;BMP_temperature;BMP_pressure;BME280_temperature;BME280_humidity;BME280_pressure;Samples;Min_cycle;Max_cycle;Signal;HPM_P1;HPM_P2
2021/07/26 00:00:21;;;;;;;3.65;2.50;;;23.10;99.90;;;;;;5075997;28;20103;-84
2021/07/26 00:02:47;;;;;;;2.70;2.50;;;23.10;99.90;;;;;;5059355;28;20028;-84
2021/07/26 00:05:13;;;;;;;2.90;2.40;;;23.10;99.90;;;;;;5074848;28;20116;-84
2021/07/26 00:07:39;;;;;;;3.53;2.53;;;23.00;99.90;;;;;;5074331;28;20119;-84
2021/07/26 00:10:06;;;;;;;3.60;2.78;;;23.00;99.90;;;;;;5074632;28;20071;-84
2021/07/26 00:12:32;;;;;;;3.80;2.80;;;23.00;99.90;;;;;;5077321;28;20103;-84
2021/07/26 00:14:59;;;;;;;4.13;2.35;;;23.00;99.90;;;;;;5087648;28;20130;-84
2021/07/26 00:17:26;;;;;;;2.90;2.47;;;23.10;99.90;;;;;;5084075;28;20028;-84
2021/07/26 00:19:52;;;;;;;3.33;2.78;;;23.10;99.90;;;;;;5072642;28;20020;-84
2021/07/26 00:22:17;;;;;;;3.38;2.53;;;23.20;99.90;;;;;;5076074;28;20403;-84
2021/07/26 00:24:43;;;;;;;3.28;2.85;;;23.30;99.90;;;;;;5078139;28;20025;-84
2021/07/26 00:27:09;;;;;;;4.35;2.40;;;23.40;99.90;;;;;;5076760;28;20017;-84
2021/07/26 00:29:34;;;;;;;5.18;2.70;;;23.40;99.90;;;;;;5077228;28;20036;-84
2021/07/26 00:32:00;;;;;;;3.33;2.42;;;23.40;99.90;;;;;;5077697;28;20032;-84
2021/07/26 00:34:27;;;;;;;5.00;2.70;;;23.40;99.90;;;;;;5072028;28;20067;-84
2021/07/26 00:37:01;;;;;;;3.88;2.42;;;23.40;99.90;;;;;;5077720;28;20392;-84
2021/07/26 00:39:29;;;;;;;3.50;2.40;;;23.30;99.90;;;;;;5078822;28;20020;-84
2021/07/26 00:41:56;;;;;;;3.15;2.58;;;23.20;99.90;;;;;;5075536;28;20035;-84
2021/07/26 00:44:23;;;;;;;5.22;2.88;;;23.20;99.90;;;;;;5076397;28;20032;-84
2021/07/26 00:46:50;;;;;;;3.70;3.00;;;23.10;99.90;;;;;;5076896;28;20028;-84
2021/07/26 00:49:18;;;;;;;3.30;2.60;;;23.00;99.90;;;;;;5072087;28;20452;-84
2021/07/26 00:51:46;;;;;;;4.35;2.60;;;23.00;99.90;;;;;;5075919;28;20025;-83
2021/07/26 00:54:13;;;;;;;3.25;2.53;;;23.10;99.90;;;;;;5076710;28;20485;-84
2021/07/26 00:56:40;;;;;;;4.88;2.90;;;23.10;99.90;;;;;;5058470;28;20029;-84
2021/07/26 00:59:06;;;;;;;3.50;3.00;;;23.00;99.90;;;;;;5076360;28;20068;-84
2021/07/26 01:01:32;;;;;;;3.47;2.80;;;22.90;99.90;;;;;;5074140;28;20381;-84
2021/07/26 01:03:58;;;;;;;4.15;2.85;;;22.90;99.90;;;;;;5057197;28;20050;-84
2021/07/26 01:06:23;;;;;;;3.83;2.67;;;23.00;99.90;;;;;;5073781;28;20040;-84
2021/07/26 01:08:49;;;;;;;4.15;2.83;;;22.90;99.90;;;;;;5058245;28;20162;-84
2021/07/26 01:11:15;;;;;;;3.08;2.78;;;22.90;99.90;;;;;;5077462;28;20028;-84
2021/07/26 01:13:41;;;;;;;5.38;2.80;;;22.80;99.90;;;;;;5072917;28;20024;-84
2021/07/26 01:16:07;;;;;;;4.13;2.80;;;22.90;99.90;;;;;;5072944;28;20055;-84
2021/07/26 01:18:34;;;;;;;4.75;3.08;;;22.80;99.90;;;;;;5076489;28;20480;-84
2021/07/26 01:21:04;;;;;;;4.00;3.03;;;22.70;99.90;;;;;;5068432;28;20036;-84
2021/07/26 01:23:33;;;;;;;3.90;2.92;;;22.70;99.90;;;;;;5076173;28;20434;-84
2021/07/26 01:26:01;;;;;;;4.10;2.97;;;22.70;99.90;;;;;;5075992;28;20016;-84
2021/07/26 01:28:29;;;;;;;3.60;3.15;;;22.60;99.90;;;;;;5072752;28;20020;-83
2021/07/26 01:30:56;;;;;;;4.00;2.95;;;22.60;99.90;;;;;;5075819;28;20035;-84
2021/07/26 01:33:22;;;;;;;3.67;3.00;;;22.60;99.90;;;;;;5077686;28;20033;-84
2021/07/26 01:35:48;;;;;;;2.90;2.60;;;22.50;99.90;;;;;;5080269;28;20028;-83
2021/07/26 01:38:14;;;;;;;4.97;3.60;;;22.50;99.90;;;;;;5083994;28;20535;-84
2021/07/26 01:40:41;;;;;;;4.35;2.45;;;22.50;99.90;;;;;;5074549;28;20521;-84
2021/07/26 01:43:09;;;;;;;4.13;2.67;;;22.40;99.90;;;;;;5072685;28;20468;-84
2021/07/26 01:45:37;;;;;;;3.10;2.80;;;22.40;99.90;;;;;;5077723;28;20055;-84
2021/07/26 01:48:06;;;;;;;3.42;2.90;;;22.30;99.90;;;;;;5075211;28;20031;-84
2021/07/26 01:50:39;;;;;;;3.28;2.60;;;22.10;99.90;;;;;;5075615;28;20028;-84
2021/07/26 01:53:06;;;;;;;4.80;3.05;;;22.00;99.90;;;;;;5083083;28;20042;-84
2021/07/26 01:55:31;;;;;;;3.17;2.70;;;22.00;99.90;;;;;;5071692;28;20056;-84
2021/07/26 01:57:57;;;;;;;4.68;3.35;;;22.00;99.90;;;;;;5074680;28;20106;-84
2021/07/26 02:00:23;;;;;;;6.65;3.17;;;21.90;99.90;;;;;;5058709;28;20155;-84
2021/07/26 02:02:48;;;;;;;6.78;3.10;;;22.00;99.90;;;;;;5075233;28;20029;-84
2021/07/26 02:05:14;;;;;;;7.70;3.08;;;21.90;99.90;;;;;;5072581;28;20426;-84
2021/07/26 02:07:40;;;;;;;4.20;2.90;;;21.90;99.90;;;;;;5086683;28;20070;-84
2021/07/26 02:10:07;;;;;;;3.95;3.42;;;21.70;99.90;;;;;;5072494;28;20103;-84
2021/07/26 02:12:33;;;;;;;3.88;3.00;;;21.60;99.90;;;;;;5077079;28;20040;-84
2021/07/26 02:15:00;;;;;;;4.47;3.10;;;21.60;99.90;;;;;;5074808;28;20816;-84
2021/07/26 02:17:26;;;;;;;4.10;2.80;;;21.60;99.90;;;;;;5075458;28;20086;-84
2021/07/26 02:19:52;;;;;;;4.63;3.20;;;21.60;99.90;;;;;;5071934;28;20020;-85
2021/07/26 02:22:18;;;;;;;5.53;3.25;;;21.70;99.90;;;;;;5070597;28;20039;-84
2021/07/26 02:24:43;;;;;;;6.20;3.10;;;21.70;99.90;;;;;;5075713;28;20111;-85
2021/07/26 02:27:09;;;;;;;5.18;3.10;;;21.70;99.90;;;;;;5074762;28;20458;-84
2021/07/26 02:29:35;;;;;;;3.80;2.92;;;21.80;99.90;;;;;;5074945;28;20446;-84
2021/07/26 02:32:00;;;;;;;3.88;3.10;;;21.80;99.90;;;;;;5074369;28;20039;-85
2021/07/26 02:34:26;;;;;;;5.15;2.63;;;21.70;99.90;;;;;;5068442;28;20381;-84
2021/07/26 02:36:52;;;;;;;5.55;3.20;;;21.70;99.90;;;;;;5074724;28;20029;-84
2021/07/26 02:39:17;;;;;;;4.68;2.88;;;21.80;99.90;;;;;;5075321;28;20032;-84
2021/07/26 02:41:43;;;;;;;3.60;2.97;;;21.80;99.90;;;;;;5074903;28;20459;-85
2021/07/26 02:44:09;;;;;;;4.20;2.88;;;21.80;99.90;;;;;;5074414;28;20027;-84
2021/07/26 02:46:35;;;;;;;3.80;2.90;;;21.70;99.90;;;;;;5072182;28;20401;-84
2021/07/26 02:49:01;;;;;;;4.15;3.00;;;21.80;99.90;;;;;;5071594;28;20170;-83
2021/07/26 02:51:26;;;;;;;4.47;3.03;;;21.80;99.90;;;;;;5076227;28;20032;-84
2021/07/26 02:53:52;;;;;;;4.88;3.10;;;21.80;99.90;;;;;;5074305;28;20029;-84
2021/07/26 02:56:18;;;;;;;4.35;2.95;;;21.80;99.90;;;;;;5074228;28;20523;-83
2021/07/26 02:58:43;;;;;;;6.65;2.90;;;21.80;99.90;;;;;;5073676;28;20024;-84
2021/07/26 03:01:10;;;;;;;4.47;3.13;;;21.70;99.90;;;;;;5070533;28;20090;-84
2021/07/26 03:03:37;;;;;;;3.33;2.78;;;21.50;99.90;;;;;;5073777;28;20055;-84
2021/07/26 03:06:03;;;;;;;4.22;3.10;;;21.40;99.90;;;;;;5072756;28;20111;-84
2021/07/26 03:08:30;;;;;;;5.07;2.97;;;21.40;99.90;;;;;;5074565;28;20132;-84
2021/07/26 03:11:03;;;;;;;6.50;3.15;;;21.50;99.90;;;;;;5072614;28;20028;-84
2021/07/26 03:13:31;;;;;;;4.32;2.80;;;21.50;99.90;;;;;;5069407;28;20492;-84
2021/07/26 03:15:56;;;;;;;3.40;3.10;;;21.60;99.90;;;;;;5073260;28;20016;-84
2021/07/26 03:18:22;;;;;;;4.20;3.20;;;21.50;99.90;;;;;;5074123;28;20562;-84
2021/07/26 03:20:48;;;;;;;3.50;3.20;;;21.60;99.90;;;;;;5059552;28;20119;-84
2021/07/26 03:23:14;;;;;;;3.33;2.90;;;21.60;99.90;;;;;;5073981;28;20419;-84
2021/07/26 03:25:42;;;;;;;5.47;3.03;;;21.60;99.90;;;;;;5069917;28;20030;-84
2021/07/26 03:28:08;;;;;;;4.45;3.05;;;21.60;99.90;;;;;;5070693;28;20024;-84
2021/07/26 03:30:34;;;;;;;5.10;3.35;;;21.50;99.90;;;;;;5074189;28;20032;-84
2021/07/26 03:33:00;;;;;;;3.78;3.08;;;21.50;99.90;;;;;;5057304;28;20049;-84
2021/07/26 03:35:26;;;;;;;5.05;3.00;;;21.50;99.90;;;;;;5075904;28;20105;-84
2021/07/26 03:37:52;;;;;;;4.25;3.28;;;21.50;99.90;;;;;;5080491;28;20053;-84
2021/07/26 03:40:20;;;;;;;3.53;3.22;;;21.40;99.90;;;;;;5076238;28;20025;-84
2021/07/26 03:42:46;;;;;;;4.45;3.13;;;21.30;99.90;;;;;;5089684;28;20032;-84
2021/07/26 03:45:14;;;;;;;4.07;3.58;;;21.40;99.90;;;;;;5079237;28;20048;-84
2021/07/26 03:47:40;;;;;;;3.35;3.08;;;21.40;99.90;;;;;;5080199;28;20507;-84
2021/07/26 03:50:07;;;;;;;5.78;3.42;;;21.40;99.90;;;;;;5076828;28;20045;-84
2021/07/26 03:53:05;;;;;;;8.32;3.20;;;21.40;99.90;;;;;;5058633;28;20036;-84
2021/07/26 03:55:33;;;;;;;6.38;3.42;;;21.40;99.90;;;;;;4964445;28;20116;-84
2021/07/26 03:57:59;;;;;;;3.67;3.20;;;21.30;99.90;;;;;;4978534;28;20039;-84
2021/07/26 04:00:27;;;;;;;5.22;3.22;;;21.40;99.90;;;;;;4980620;28;20069;-84
2021/07/26 04:05:49;;;;;;;4.25;3.10;;;21.30;99.90;;;;;;4985075;28;20050;-84
2021/07/26 04:08:27;;;;;;;4.20;3.40;;;21.30;99.90;;;;;;4979329;28;20092;-84
2021/07/26 04:11:04;;;;;;;3.72;3.42;;;21.30;99.90;;;;;;4980540;28;20144;-84
2021/07/26 04:13:32;;;;;;;4.78;3.42;;;21.40;99.90;;;;;;4977525;28;20061;-86
2021/07/26 04:15:58;;;;;;;3.55;2.90;;;21.40;99.90;;;;;;4960888;28;20086;-86
2021/07/26 04:18:25;;;;;;;6.13;3.42;;;21.50;99.90;;;;;;4981034;28;20050;-86
2021/07/26 04:20:52;;;;;;;5.45;3.88;;;21.40;99.90;;;;;;4979742;28;20053;-86
2021/07/26 04:23:18;;;;;;;8.27;3.63;;;21.30;99.90;;;;;;4980366;28;20039;-86
2021/07/26 04:25:43;;;;;;;5.28;3.35;;;21.50;99.90;;;;;;4962333;28;20222;-86
2021/07/26 04:28:09;;;;;;;6.63;3.67;;;21.50;99.90;;;;;;4977663;28;20046;-87
2021/07/26 04:30:35;;;;;;;4.68;3.53;;;21.60;99.90;;;;;;5009297;28;20025;-86
2021/07/26 04:33:00;;;;;;;4.68;3.40;;;21.60;99.90;;;;;;5076536;28;20178;-87
2021/07/26 04:35:26;;;;;;;4.55;3.53;;;21.60;99.90;;;;;;5080272;28;20421;-86
2021/07/26 04:37:52;;;;;;;4.75;3.55;;;21.60;99.90;;;;;;5080328;28;20092;-86
2021/07/26 04:40:18;;;;;;;5.47;3.25;;;21.60;99.90;;;;;;5075815;28;20488;-86
2021/07/26 04:42:44;;;;;;;4.30;3.50;;;21.60;99.90;;;;;;5097054;22;20389;-81
2021/07/26 04:45:11;;;;;;;3.90;3.45;;;21.60;99.90;;;;;;5079534;28;20028;-82
2021/07/26 04:47:37;;;;;;;4.10;3.70;;;21.70;99.90;;;;;;5075078;28;20025;-81
2021/07/26 04:50:03;;;;;;;5.13;4.10;;;21.70;99.90;;;;;;5076633;28;20032;-81
2021/07/26 04:52:29;;;;;;;6.43;4.05;;;21.70;99.90;;;;;;5073496;28;20078;-81
2021/07/26 04:54:55;;;;;;;4.85;3.65;;;21.70;99.90;;;;;;5076896;28;20472;-82
2021/07/26 04:57:21;;;;;;;6.47;3.75;;;21.80;99.90;;;;;;5077525;28;20046;-82
2021/07/26 04:59:46;;;;;;;5.15;3.65;;;21.80;99.90;;;;;;5076074;28;20036;-81
2021/07/26 05:02:12;;;;;;;7.35;4.07;;;21.70;99.90;;;;;;5075579;28;20051;-81
2021/07/26 05:04:38;;;;;;;6.00;3.60;;;21.70;99.90;;;;;;5073255;28;20032;-82
2021/07/26 05:07:04;;;;;;;5.32;3.80;;;21.70;99.90;;;;;;5071518;28;20032;-81
2021/07/26 05:09:30;;;;;;;6.07;4.07;;;21.70;99.90;;;;;;5076611;28;20104;-81
2021/07/26 05:12:04;;;;;;;5.22;4.15;;;21.80;99.90;;;;;;5074493;28;20045;-82
2021/07/26 05:14:30;;;;;;;4.75;4.00;;;21.70;99.90;;;;;;5075256;28;20107;-82
2021/07/26 05:16:57;;;;;;;5.90;3.83;;;21.60;99.90;;;;;;5076026;28;20044;-81
2021/07/26 05:19:23;;;;;;;5.13;3.67;;;21.60;99.90;;;;;;5071939;28;20363;-82
2021/07/26 05:21:49;;;;;;;7.70;3.92;;;21.70;99.90;;;;;;5076267;28;20397;-84
2021/07/26 05:24:15;;;;;;;3.95;3.53;;;21.70;99.90;;;;;;5074956;28;20032;-81
2021/07/26 05:26:41;;;;;;;6.97;3.50;;;21.60;99.90;;;;;;5075995;28;20031;-83
2021/07/26 05:29:06;;;;;;;5.13;4.07;;;21.70;99.90;;;;;;5075555;28;20020;-82
2021/07/26 05:31:32;;;;;;;4.82;3.72;;;21.60;99.90;;;;;;5073314;28;20107;-82
2021/07/26 05:33:57;;;;;;;6.30;4.03;;;21.60;99.90;;;;;;5075158;28;20538;-82
2021/07/26 05:36:24;;;;;;;6.38;4.03;;;21.70;99.90;;;;;;5074971;28;20086;-82
2021/07/26 05:38:51;;;;;;;5.50;3.97;;;21.80;99.90;;;;;;5068280;28;20404;-82
2021/07/26 05:41:17;;;;;;;6.78;4.38;;;21.90;99.90;;;;;;5075351;28;20064;-82
2021/07/26 05:43:43;;;;;;;6.40;4.15;;;21.90;99.90;;;;;;5073791;28;20066;-81
2021/07/26 05:46:09;;;;;;;5.93;4.32;;;21.70;99.90;;;;;;5073000;28;20035;-88
2021/07/26 05:48:34;;;;;;;6.65;4.55;;;21.70;99.90;;;;;;5074656;28;20032;-85
2021/07/26 05:51:00;;;;;;;5.45;3.88;;;21.60;99.90;;;;;;5060572;28;20085;-84
2021/07/26 05:53:25;;;;;;;7.07;3.83;;;21.70;99.90;;;;;;5076419;28;20033;-84
2021/07/26 05:55:51;;;;;;;5.72;4.05;;;21.80;99.90;;;;;;5075079;28;20503;-84
2021/07/26 05:58:17;;;;;;;6.60;4.00;;;21.90;99.90;;;;;;5049262;28;20033;-84
2021/07/26 06:00:45;;;;;;;4.90;4.10;;;22.10;99.90;;;;;;5077361;28;20511;-84
2021/07/26 06:03:11;;;;;;;6.55;4.28;;;22.20;99.90;;;;;;5073907;28;20373;-84
2021/07/26 06:05:37;;;;;;;5.70;4.28;;;22.40;99.90;;;;;;5074986;28;20031;-84
2021/07/26 06:08:03;;;;;;;6.10;4.00;;;22.40;99.90;;;;;;5055405;28;20115;-83
2021/07/26 06:10:29;;;;;;;6.05;4.40;;;22.40;99.90;;;;;;5071365;28;20025;-83
2021/07/26 06:12:55;;;;;;;6.53;4.53;;;22.40;99.90;;;;;;5074793;28;20473;-85
2021/07/26 06:15:21;;;;;;;5.70;4.32;;;22.30;99.90;;;;;;5075285;28;20026;-85
2021/07/26 06:17:47;;;;;;;6.85;4.93;;;22.40;99.90;;;;;;5073735;28;20542;-85
2021/07/26 06:20:13;;;;;;;5.63;4.45;;;22.30;99.90;;;;;;5074880;28;20113;-84
2021/07/26 06:22:39;;;;;;;6.20;4.75;;;22.40;99.90;;;;;;5054818;28;20055;-84
2021/07/26 06:25:09;;;;;;;5.40;4.65;;;22.60;99.90;;;;;;5072209;28;20063;-85
2021/07/26 06:27:35;;;;;;;6.70;4.78;;;22.60;99.90;;;;;;5074683;28;20032;-85
2021/07/26 06:30:01;;;;;;;6.88;5.18;;;22.50;99.90;;;;;;5073037;28;20020;-85
2021/07/26 06:32:31;;;;;;;7.68;4.82;;;22.60;99.90;;;;;;5073586;28;20454;-83
2021/07/26 06:34:57;;;;;;;6.55;5.25;;;22.90;99.90;;;;;;5074070;28;20395;-82
2021/07/26 06:37:22;;;;;;;5.68;5.15;;;23.00;99.90;;;;;;5070384;28;20017;-82
2021/07/26 06:39:48;;;;;;;6.22;5.13;;;22.90;99.90;;;;;;5076247;28;20469;-85
2021/07/26 06:42:13;;;;;;;6.80;5.20;;;23.00;99.90;;;;;;5073796;28;20024;-84
2021/07/26 06:44:44;;;;;;;7.57;4.93;;;23.20;99.90;;;;;;5074579;28;20436;-84
2021/07/26 06:47:09;;;;;;;9.07;5.03;;;23.10;99.90;;;;;;5069944;28;20034;-84
2021/07/26 06:49:35;;;;;;;6.97;5.30;;;22.90;99.90;;;;;;5068237;28;20099;-85
2021/07/26 06:52:02;;;;;;;6.53;5.07;;;22.90;99.90;;;;;;5068537;28;20036;-84
2021/07/26 06:54:28;;;;;;;7.28;5.18;;;23.00;99.90;;;;;;5084244;28;20032;-85
2021/07/26 06:56:53;;;;;;;6.43;4.80;;;23.30;99.90;;;;;;5072537;28;20032;-90
2021/07/26 06:59:19;;;;;;;7.32;4.75;;;23.50;99.90;;;;;;5056574;28;20549;-84
2021/07/26 07:01:45;;;;;;;8.38;5.40;;;23.50;99.90;;;;;;5067965;28;20081;-84
2021/07/26 07:04:11;;;;;;;7.63;4.70;;;23.50;99.90;;;;;;5070118;28;20586;-73
2021/07/26 07:06:36;;;;;;;5.55;4.93;;;23.40;99.90;;;;;;5075172;28;20047;-76
2021/07/26 07:09:02;;;;;;;7.30;5.13;;;23.40;99.90;;;;;;5066616;28;20496;-78
2021/07/26 07:11:28;;;;;;;8.45;5.30;;;23.40;99.90;;;;;;5073135;28;20029;-77
2021/07/26 07:13:56;;;;;;;13.07;5.60;;;23.30;99.90;;;;;;5072727;28;20040;-77
2021/07/26 07:16:23;;;;;;;12.93;5.35;;;23.20;99.90;;;;;;5067384;28;20434;-86
2021/07/26 07:18:51;;;;;;;6.63;5.18;;;23.40;99.90;;;;;;5070027;28;20032;-80
2021/07/26 07:21:25;;;;;;;5.88;4.93;;;23.70;99.90;;;;;;5072126;28;20036;-80
2021/07/26 07:23:52;;;;;;;6.15;5.05;;;23.40;99.90;;;;;;5073521;28;20438;-78
2021/07/26 07:26:19;;;;;;;6.57;5.30;;;23.40;99.90;;;;;;5075331;28;20554;-81
2021/07/26 07:28:45;;;;;;;6.05;5.05;;;23.70;99.90;;;;;;5072226;28;20111;-81
2021/07/26 07:31:16;;;;;;;8.35;5.63;;;23.50;99.90;;;;;;5069765;28;20120;-77
2021/07/26 07:33:42;;;;;;;6.82;5.07;;;23.50;99.90;;;;;;5073933;28;20029;-78
2021/07/26 07:36:08;;;;;;;8.35;5.57;;;23.50;99.90;;;;;;5073480;28;20032;-77
2021/07/26 07:38:34;;;;;;;7.00;5.35;;;23.40;99.90;;;;;;5071836;28;20143;-77
2021/07/26 07:41:01;;;;;;;7.28;5.22;;;23.40;99.90;;;;;;5072757;28;20032;-77
2021/07/26 07:43:28;;;;;;;7.47;5.18;;;23.40;99.90;;;;;;5068754;28;20037;-78
2021/07/26 07:45:54;;;;;;;6.28;5.65;;;23.60;99.90;;;;;;5072416;28;20067;-78
2021/07/26 07:48:24;;;;;;;7.78;5.55;;;23.30;99.90;;;;;;5071525;28;20130;-79
2021/07/26 07:50:51;;;;;;;8.52;5.57;;;23.40;99.90;;;;;;5072263;28;20035;-77
2021/07/26 07:53:16;;;;;;;9.07;5.65;;;23.50;99.90;;;;;;5072198;28;20044;-78
2021/07/26 07:55:42;;;;;;;7.63;5.72;;;23.60;99.90;;;;;;5072234;28;20387;-79
2021/07/26 07:58:08;;;;;;;8.50;5.70;;;23.90;99.90;;;;;;5070132;28;20044;-79
2021/07/26 08:00:34;;;;;;;9.98;5.70;;;23.90;99.90;;;;;;5073911;28;20024;-83
2021/07/26 08:03:00;;;;;;;8.25;5.65;;;24.30;99.90;;;;;;5056352;28;20098;-79
2021/07/26 08:05:27;;;;;;;7.55;5.93;;;24.20;99.90;;;;;;5073229;28;20070;-79
2021/07/26 08:07:52;;;;;;;6.25;5.65;;;24.30;99.90;;;;;;5068208;28;20063;-79
2021/07/26 08:10:18;;;;;;;8.95;5.90;;;24.80;99.90;;;;;;5085881;28;20025;-80
2021/07/26 08:12:44;;;;;;;8.30;5.63;;;24.90;99.90;;;;;;5074011;28;20416;-79
2021/07/26 08:15:11;;;;;;;7.68;5.97;;;25.30;99.90;;;;;;5073165;28;20013;-79
2021/07/26 08:17:44;;;;;;;7.90;5.43;;;25.20;99.90;;;;;;5071501;28;20028;-78
2021/07/26 08:20:12;;;;;;;6.97;6.25;;;25.10;99.90;;;;;;5046372;28;20037;-79
2021/07/26 08:22:38;;;;;;;7.28;5.45;;;25.40;99.90;;;;;;5068004;28;20033;-79
2021/07/26 08:25:05;;;;;;;5.93;5.32;;;25.80;99.90;;;;;;5073432;28;20400;-79
2021/07/26 08:27:31;;;;;;;8.80;5.53;;;26.00;99.90;;;;;;5075844;28;20090;-78
2021/07/26 08:29:57;;;;;;;7.63;5.22;;;26.00;99.90;;;;;;5081624;28;20031;-79
2021/07/26 08:32:23;;;;;;;8.20;5.55;;;26.00;99.90;;;;;;5084957;28;20041;-79
2021/07/26 08:34:49;;;;;;;7.75;5.03;;;26.00;99.90;;;;;;5064073;28;20031;-79
2021/07/26 08:37:26;;;;;;;8.02;5.45;;;26.30;99.90;;;;;;5072703;28;20052;-78
2021/07/26 08:39:52;;;;;;;8.75;5.90;;;26.30;99.90;;;;;;5069637;28;20107;-80
2021/07/26 08:42:18;;;;;;;6.38;5.60;;;26.40;99.90;;;;;;5072278;28;20037;-79
2021/07/26 08:44:44;;;;;;;5.93;4.90;;;26.40;99.90;;;;;;5063259;28;20400;-79
2021/07/26 08:47:11;;;;;;;6.78;5.43;;;26.70;99.90;;;;;;5076086;28;20101;-79
2021/07/26 08:49:38;;;;;;;6.65;5.03;;;26.60;99.90;;;;;;5059221;28;20031;-79
2021/07/26 08:52:05;;;;;;;8.82;5.35;;;27.00;99.90;;;;;;5072636;28;20044;-79
2021/07/26 08:54:32;;;;;;;6.97;5.35;;;27.40;99.90;;;;;;5078581;28;20021;-79
2021/07/26 08:57:01;;;;;;;9.30;5.75;;;27.10;99.90;;;;;;5072520;28;20068;-79
2021/07/26 08:59:27;;;;;;;7.00;5.75;;;26.90;99.90;;;;;;5069210;28;20017;-79
2021/07/26 09:01:55;;;;;;;7.45;5.65;;;27.00;99.90;;;;;;5074673;28;20506;-79
2021/07/26 09:04:21;;;;;;;7.22;5.75;;;27.30;99.90;;;;;;5054855;28;20107;-79
2021/07/26 09:06:47;;;;;;;7.78;5.70;;;27.00;99.90;;;;;;5076897;28;20108;-79
2021/07/26 09:09:13;;;;;;;7.32;5.03;;;26.90;99.90;;;;;;5075224;28;20070;-80
2021/07/26 09:11:46;;;;;;;8.40;5.68;;;26.60;99.90;;;;;;5076455;28;20053;-79
2021/07/26 09:14:40;;;;;;;7.13;5.47;;;26.60;99.90;;;;;;5075439;28;20021;-79
2021/07/26 09:17:09;;;;;;;8.27;5.72;;;26.30;99.90;;;;;;5085860;28;20032;-80
2021/07/26 09:19:56;;;;;;;7.63;5.80;;;26.60;99.90;;;;;;5069182;28;20066;-78
2021/07/26 09:22:29;;;;;;;8.57;5.35;;;26.70;99.90;;;;;;5059024;28;20032;-80
2021/07/26 09:25:22;;;;;;;9.93;5.30;;;26.60;99.90;;;;;;5058717;28;20059;-80
2021/07/26 09:28:10;;;;;;;9.88;4.95;;;26.70;99.90;;;;;;5084914;28;20032;-80
2021/07/26 09:30:53;;;;;;;5.38;4.88;;;26.80;99.90;;;;;;5074105;28;20089;-80
2021/07/26 09:33:20;;;;;;;8.98;5.38;;;27.10;99.90;;;;;;5076450;28;20041;-79
2021/07/26 09:36:05;;;;;;;6.97;5.45;;;27.30;99.90;;;;;;5071554;28;20487;-79
2021/07/26 09:38:32;;;;;;;6.70;4.88;;;27.30;99.90;;;;;;5076020;28;20119;-79
2021/07/26 09:40:58;;;;;;;9.20;5.50;;;27.20;99.90;;;;;;5072447;28;20028;-80
2021/07/26 09:43:24;;;;;;;7.00;5.32;;;27.50;99.90;;;;;;5070169;28;20045;-79
2021/07/26 09:45:52;;;;;;;6.72;5.40;;;27.60;99.90;;;;;;5074871;28;20031;-79
2021/07/26 09:48:25;;;;;;;8.10;5.43;;;27.10;99.90;;;;;;5067179;28;20111;-79
2021/07/26 09:50:51;;;;;;;7.47;5.18;;;26.90;99.90;;;;;;5070964;28;20388;-79
2021/07/26 09:53:19;;;;;;;9.15;6.10;;;27.00;99.90;;;;;;5075316;28;20040;-79
2021/07/26 09:55:47;;;;;;;8.90;5.93;;;26.80;99.90;;;;;;5068270;28;20047;-78
2021/07/26 09:58:15;;;;;;;7.22;5.15;;;26.70;99.90;;;;;;5071441;28;20493;-78
2021/07/26 10:00:42;;;;;;;7.70;5.25;;;27.10;99.90;;;;;;5076298;28;20101;-78
2021/07/26 10:03:13;;;;;;;6.45;5.32;;;26.90;99.90;;;;;;5073767;28;20028;-78
2021/07/26 10:05:40;;;;;;;5.68;4.78;;;26.90;99.90;;;;;;5075155;28;20064;-78
2021/07/26 10:08:07;;;;;;;7.30;5.60;;;27.30;99.90;;;;;;5073442;28;20103;-78
2021/07/26 10:10:34;;;;;;;5.85;4.88;;;27.20;99.90;;;;;;5069364;28;20075;-78
2021/07/26 10:13:01;;;;;;;9.00;5.55;;;27.00;99.90;;;;;;5071089;28;20051;-78
2021/07/26 10:15:29;;;;;;;7.35;5.63;;;27.20;99.90;;;;;;5072496;28;20032;-80
2021/07/26 10:17:55;;;;;;;9.10;5.43;;;27.80;99.90;;;;;;5075380;28;20033;-78
2021/07/26 10:20:26;;;;;;;8.10;5.45;;;27.80;99.90;;;;;;5073947;28;20047;-78
2021/07/26 10:23:21;;;;;;;7.97;5.28;;;27.80;99.90;;;;;;5072539;28;20047;-79
2021/07/26 10:26:00;;;;;;;7.55;5.53;;;27.50;99.90;;;;;;5061013;28;20028;-77
2021/07/26 10:28:33;;;;;;;8.18;5.40;;;27.90;99.90;;;;;;5063346;28;20023;-78
2021/07/26 10:30:58;;;;;;;6.80;5.28;;;27.90;99.90;;;;;;5073199;28;20032;-77
2021/07/26 10:33:24;;;;;;;8.60;5.10;;;29.20;99.90;;;;;;5064589;28;20047;-78
2021/07/26 10:35:52;;;;;;;5.45;4.72;;;29.60;99.90;;;;;;5066827;28;20071;-79
2021/07/26 10:38:43;;;;;;;5.63;4.75;;;29.90;99.90;;;;;;5066598;28;20028;-78
2021/07/26 10:41:08;;;;;;;8.48;5.28;;;29.90;99.90;;;;;;5071016;28;20486;-79
2021/07/26 10:43:55;;;;;;;7.82;5.45;;;29.30;99.90;;;;;;5084176;28;20076;-79
2021/07/26 10:46:21;;;;;;;6.20;5.22;;;28.80;99.90;;;;;;5053318;28;20025;-79
2021/07/26 10:48:51;;;;;;;6.95;5.63;;;28.50;99.90;;;;;;5076301;28;20051;-79
2021/07/26 10:51:40;;;;;;;6.10;5.25;;;28.80;99.90;;;;;;5056706;28;20103;-79
2021/07/26 10:54:08;;;;;;;8.18;4.93;;;28.90;99.90;;;;;;5073236;28;20115;-79
2021/07/26 10:57:01;;;;;;;9.43;5.20;;;29.00;99.90;;;;;;5074057;28;20482;-80
2021/07/26 10:59:28;;;;;;;5.70;4.72;;;29.00;99.90;;;;;;5072816;28;20515;-79
2021/07/26 11:02:03;;;;;;;8.75;5.50;;;28.70;99.90;;;;;;5072171;28;20031;-79
2021/07/26 11:04:34;;;;;;;7.85;5.70;;;28.50;99.90;;;;;;5056034;28;20032;-79
2021/07/26 11:07:02;;;;;;;6.07;5.32;;;28.30;99.90;;;;;;5065983;28;20120;-79
2021/07/26 11:09:34;;;;;;;7.70;5.40;;;29.10;99.90;;;;;;5072031;28;20416;-78
2021/07/26 11:12:02;;;;;;;7.47;5.20;;;29.60;99.90;;;;;;5073739;28;20021;-79
2021/07/26 11:14:28;;;;;;;7.55;5.38;;;30.10;99.90;;;;;;5070844;28;20085;-78
2021/07/26 11:17:00;;;;;;;9.63;5.28;;;30.30;99.90;;;;;;5071559;28;20505;-79
2021/07/26 11:19:52;;;;;;;6.13;4.95;;;29.90;99.90;;;;;;5055871;28;20029;-77
2021/07/26 11:22:21;;;;;;;8.35;5.10;;;29.60;99.90;;;;;;5071159;28;20023;-80
2021/07/26 11:24:47;;;;;;;5.50;4.97;;;29.00;99.90;;;;;;5062663;28;20033;-79
2021/07/26 11:27:22;;;;;;;6.43;5.03;;;29.20;99.90;;;;;;5050538;28;20028;-78
2021/07/26 11:29:52;;;;;;;5.88;5.00;;;29.40;99.90;;;;;;5068895;28;20057;-77
2021/07/26 11:32:22;;;;;;;6.95;5.10;;;29.50;99.90;;;;;;5070646;28;20037;-78
2021/07/26 11:34:56;;;;;;;8.25;5.30;;;30.20;99.90;;;;;;5069126;28;20393;-79
2021/07/26 11:37:29;;;;;;;8.20;5.32;;;30.20;99.90;;;;;;5065668;28;20489;-79
2021/07/26 11:39:59;;;;;;;7.75;4.97;;;32.40;99.90;;;;;;5065113;28;20036;-77
2021/07/26 11:42:27;;;;;;;6.50;5.10;;;30.80;99.90;;;;;;5069540;28;20021;-77
2021/07/26 11:44:53;;;;;;;9.77;5.55;;;33.60;99.90;;;;;;5067301;28;20059;-78
2021/07/26 11:47:39;;;;;;;8.13;5.53;;;34.00;99.90;;;;;;5068552;28;20025;-77
2021/07/26 11:50:18;;;;;;;8.35;5.60;;;36.80;99.90;;;;;;5066995;28;20085;-79
2021/07/26 11:52:57;;;;;;;5.70;4.68;;;38.90;99.90;;;;;;5071165;28;20045;-79
2021/07/26 11:55:29;;;;;;;7.72;4.90;;;39.80;99.90;;;;;;5044598;28;20017;-78
2021/07/26 11:57:55;;;;;;;7.45;4.78;;;41.60;99.90;;;;;;5070856;28;20447;-79
2021/07/26 12:00:32;;;;;;;5.13;4.63;;;41.60;99.90;;;;;;5074571;28;20032;-79
2021/07/26 12:02:59;;;;;;;7.85;4.85;;;42.30;99.90;;;;;;5074514;28;20036;-79
2021/07/26 12:05:31;;;;;;;7.93;5.43;;;41.90;99.90;;;;;;5074352;28;20028;-79
2021/07/26 12:08:01;;;;;;;5.13;4.72;;;42.10;99.90;;;;;;5071919;28;20037;-79
2021/07/26 12:10:37;;;;;;;7.07;5.18;;;42.10;99.90;;;;;;5075215;28;20020;-79
2021/07/26 12:13:07;;;;;;;6.72;4.88;;;42.20;99.90;;;;;;5073757;28;20067;-79
2021/07/26 12:15:32;;;;;;;7.85;5.35;;;42.10;99.90;;;;;;5075463;28;20020;-78
2021/07/26 12:18:08;;;;;;;5.32;4.80;;;41.70;99.90;;;;;;5074444;28;20039;-79
2021/07/26 12:20:36;;;;;;;7.57;4.95;;;42.80;99.90;;;;;;5074225;28;20101;-79
2021/07/26 12:23:16;;;;;;;6.75;4.85;;;42.30;99.90;;;;;;5073039;28;20028;-79
2021/07/26 12:25:46;;;;;;;9.23;5.10;;;39.40;99.90;;;;;;5074564;28;20488;-76
2021/07/26 12:28:13;;;;;;;5.32;4.72;;;35.80;99.90;;;;;;5073849;28;20025;-79
2021/07/26 12:30:43;;;;;;;5.93;5.13;;;33.80;99.90;;;;;;5074692;28;20024;-78
2021/07/26 12:33:12;;;;;;;6.75;4.78;;;32.80;99.90;;;;;;5074389;28;20047;-77
2021/07/26 12:35:38;;;;;;;6.63;4.78;;;32.30;99.90;;;;;;5073779;28;20028;-78
2021/07/26 12:38:18;;;;;;;6.55;4.63;;;35.10;99.90;;;;;;5070769;28;20046;-79
2021/07/26 12:41:04;;;;;;;7.95;4.93;;;38.40;99.90;;;;;;5074270;28;20033;-79
2021/07/26 12:43:31;;;;;;;5.03;4.25;;;39.60;99.90;;;;;;5058831;28;20041;-79
2021/07/26 12:46:06;;;;;;;7.32;4.70;;;40.80;99.90;;;;;;5074341;28;20031;-78
2021/07/26 12:48:34;;;;;;;5.88;4.82;;;41.30;99.90;;;;;;5074106;28;20025;-79
2021/07/26 12:51:04;;;;;;;5.93;4.90;;;40.70;99.90;;;;;;5071342;28;20511;-79
2021/07/26 12:53:30;;;;;;;5.10;4.60;;;39.50;99.90;;;;;;5073949;28;20036;-79
2021/07/26 12:55:56;;;;;;;6.85;4.45;;;39.90;99.90;;;;;;5073795;28;20500;-77